Birmingham, MI (48009)

7:24 AM EST on December 03, 2016 (GMT -0500)
Derby and Adams | | Change Station

Elev 794 ft 42.56 °N, 83.20 °W | Updated 13 seconds ago

Overcast
Overcast
34.3 °F
Feels Like 34 °F
N
0.0
Wind Variable Wind from SSW
Gusts 0.0 mph

Today
High -- | Low -- °F
--% Chance of Precip.
Yesterday
High -- | Low -- °F
Precip. -- in
Pressure 30.29 in
Visibility 10.0 miles
Clouds Overcast 2300 ft
Windchill 34 °F
Dew Point 21 °F
Humidity 58%
Rainfall 0.00 in
Snow Depth Not available.
7:45 AM 5:00 PM
Waxing Crescent, 14% visible
METAR KVLL 031214Z AUTO 23004KT 10SM OVC023 02/M02 A3029 RMK AO2 T00151019
Pressure 30.29 in
Visibility 10.0 miles
Clouds Overcast 2300 ft
Windchill 34 °F
Dew Point 21 °F
Humidity 58%
Rainfall 0.00 in
Snow Depth Not available.
7:45 AM 5:00 PM
Waxing Crescent, 14% visible
METAR KVLL 031214Z AUTO 23004KT 10SM OVC023 02/M02 A3029 RMK AO2 T00151019

10-Day Weather Forecast

Almanac

Astronomy

Dec. 03, 2016 Rise Set
Actual Time
Civil Twilight
Nautical Twilight
Astronomical Twilight
Moon
Length of Visible Light
Length of Day
Tomorrow will be .
, % of the Moon is Illuminated

Today's Extremes

State Highs State Lows

Community

WunderPhotos

Upload Photos

1,955,441 photos uploaded!

WunderBlog® & News

Nearby

Air Quality

  Air Quality AQ Index Pollutant
Not available.

Snow Depth

Station Depth Elevation

Earthquake Activity

City Distance Mag. Time & Date
Minimum magnitude displayed is 2.5.

Coastal Water Temperatures

Place Temperature

Stations

Nearby Weather Stations

Station Location Temp. Windchill Dew Point Humidity Wind Precip. Elev Updated Type
                   

Watches & Warnings

There are currently no watches in effect.